createdAt,value
2017-05-25T04:00:18.780Z,55.40
2017-05-25T04:02:47.074Z,55.40
2017-05-25T04:05:15.448Z,55.50
2017-05-25T04:07:43.810Z,55.30
2017-05-25T04:10:12.185Z,55.40
2017-05-25T04:12:40.577Z,55.40
2017-05-25T04:15:08.870Z,55.30
2017-05-25T04:17:37.156Z,55.20
2017-05-25T04:20:05.525Z,55.30
2017-05-25T04:22:33.852Z,55.30
2017-05-25T04:25:02.229Z,55.30
2017-05-25T04:27:30.565Z,55.20
2017-05-25T04:29:58.161Z,55.20
2017-05-25T04:32:26.470Z,55.10
2017-05-25T04:34:54.856Z,55.10
2017-05-25T04:37:23.171Z,55.10
2017-05-25T04:39:51.461Z,55.10
2017-05-25T04:42:19.898Z,55.10
2017-05-25T04:44:48.287Z,55.00
2017-05-25T04:47:16.605Z,55.00
2017-05-25T04:49:44.917Z,55.00
2017-05-25T04:52:13.269Z,54.90
2017-05-25T04:54:41.571Z,55.20
2017-05-25T04:57:09.938Z,55.10
2017-05-25T04:59:38.272Z,55.00
2017-05-25T05:02:06.586Z,55.10
2017-05-25T05:04:34.924Z,54.90
2017-05-25T05:07:03.307Z,55.00
2017-05-25T05:09:31.613Z,55.00
2017-05-25T05:11:59.980Z,54.90
2017-05-25T05:14:28.285Z,54.90
2017-05-25T05:16:56.632Z,55.00
2017-05-25T05:19:24.977Z,55.00
2017-05-25T05:21:53.312Z,54.90
2017-05-25T05:24:21.634Z,54.90
2017-05-25T05:26:50.004Z,54.90
2017-05-25T05:29:18.337Z,54.80
2017-05-25T05:31:46.644Z,54.90
2017-05-25T05:34:14.271Z,54.80
2017-05-25T05:36:42.613Z,54.90
2017-05-25T05:39:11.073Z,55.00
2017-05-25T05:41:39.372Z,55.00
2017-05-25T05:44:07.729Z,55.10
2017-05-25T05:46:36.085Z,55.00
2017-05-25T05:49:04.405Z,55.70
2017-05-25T05:51:32.938Z,55.10
2017-05-25T05:54:01.308Z,55.00
2017-05-25T05:56:29.622Z,55.10
2017-05-25T05:58:57.928Z,54.90
2017-05-25T06:01:26.328Z,54.90
2017-05-25T06:03:54.667Z,54.80
2017-05-25T06:06:22.985Z,55.00
2017-05-25T06:08:50.616Z,54.90
2017-05-25T06:11:18.936Z,54.90
2017-05-25T06:13:47.241Z,55.00
2017-05-25T06:16:15.612Z,55.10
2017-05-25T06:18:43.949Z,55.10
2017-05-25T06:21:12.322Z,55.50
2017-05-25T06:23:40.716Z,55.00
2017-05-25T06:26:09.010Z,54.90
2017-05-25T06:28:37.864Z,54.80
2017-05-25T06:31:06.180Z,54.70
2017-05-25T06:36:27.875Z,54.60
2017-05-25T06:38:56.281Z,55.20
2017-05-25T06:41:24.604Z,54.60
2017-05-25T06:43:52.953Z,54.70
2017-05-25T06:46:21.305Z,54.70
2017-05-25T06:48:49.625Z,54.70
2017-05-25T06:51:17.944Z,54.50
2017-05-25T06:53:46.336Z,54.50
2017-05-25T06:56:14.633Z,54.40
2017-05-25T06:58:42.948Z,54.40
2017-05-25T07:01:11.292Z,54.30
2017-05-25T07:03:39.620Z,54.30
2017-05-25T07:06:07.141Z,54.20
2017-05-25T07:08:35.488Z,54.10
2017-05-25T07:11:03.841Z,54.10
2017-05-25T07:13:32.153Z,54.10
2017-05-25T07:16:00.535Z,54.10
2017-05-25T07:18:28.869Z,54.20
2017-05-25T07:20:57.188Z,54.20
2017-05-25T07:23:25.544Z,54.10
2017-05-25T07:25:53.869Z,54.20
2017-05-25T07:28:22.195Z,54.20
2017-05-25T07:30:50.588Z,54.10
2017-05-25T07:33:18.876Z,54.10
2017-05-25T07:35:47.198Z,54.00
2017-05-25T07:38:15.596Z,54.10
2017-05-25T07:40:43.891Z,54.00
2017-05-25T07:43:12.238Z,54.00
2017-05-25T07:45:40.614Z,53.90
2017-05-25T07:48:09.011Z,53.80
2017-05-25T07:50:37.332Z,53.80
2017-05-25T07:53:05.690Z,53.80
2017-05-25T07:55:33.987Z,53.90
2017-05-25T07:58:02.318Z,53.80
2017-05-25T08:00:30.667Z,53.90
2017-05-25T08:02:58.202Z,53.90
